Kalaheo, HI

6:17 AM HST on August 25, 2016 (GMT -1000)
Lawai | | Change Station

Elev 512 ft 21.92 °N, 159.51 °W | Updated 23 seconds ago

Partly Cloudy
Partly Cloudy
76.5 °F
Feels Like 77 °F
N
0.0
Wind Variable Wind from NE
Gusts 6.0 mph

Today
High -- | Low -- °F
--% Chance of Precip.
Yesterday
High -- | Low -- °F
Precip. -- in
Pressure 30.07 in
Visibility 10.0 miles
Clouds Few 1700 ft
Heat Index 77 °F
Dew Point 74 °F
Humidity 91%
Rainfall 0.00 in
Snow Depth Not available.
6:19 AM 7:00 PM
Last Quarter, 44% visible
METAR PHLI 251553Z 07009KT 10SM FEW017 27/24 A3008 RMK AO2 SLP181 T02670239
Pressure 30.07 in
Visibility 10.0 miles
Clouds Few 1700 ft
Heat Index 77 °F
Dew Point 74 °F
Humidity 91%
Rainfall 0.00 in
Snow Depth Not available.
6:19 AM 7:00 PM
Last Quarter, 44% visible
METAR PHLI 251553Z 07009KT 10SM FEW017 27/24 A3008 RMK AO2 SLP181 T02670239

10-Day Weather Forecast

Almanac

Astronomy

Aug. 25, 2016 Rise Set
Actual Time
Civil Twilight
Nautical Twilight
Astronomical Twilight
Moon
Length of Visible Light
Length of Day
Tomorrow will be .
, % of the Moon is Illuminated

Today's Extremes

State Highs State Lows

Community

WunderPhotos

Upload Photos

1,934,867 photos uploaded!

WunderBlog® & News

Nearby

Air Quality

  Air Quality AQ Index Pollutant
Not available.

Snow Depth

Station Depth Elevation

Earthquake Activity

City Distance Mag. Time & Date
Minimum magnitude displayed is 2.5.

Coastal Water Temperatures

Place Temperature

Stations

Nearby Weather Stations

Station Location Temp. Windchill Dew Point Humidity Wind Precip. Elev Updated Type
                   

Watches & Warnings

There are currently no watches in effect.